createdAt,value
2023-01-17T00:02:01.934Z,10.48
2023-01-17T00:04:47.363Z,10.77
2023-01-17T00:07:34.068Z,11.57
2023-01-17T00:10:04.360Z,9.63
2023-01-17T00:12:30.978Z,10.80
2023-01-17T00:14:58.607Z,10.82
2023-01-17T00:17:26.659Z,12.85
2023-01-17T00:20:11.732Z,13.02
2023-01-17T00:22:56.567Z,15.73
2023-01-17T00:25:44.489Z,13.95
2023-01-17T00:28:10.926Z,16.20
2023-01-17T00:30:37.285Z,16.77
2023-01-17T00:33:03.796Z,15.57
2023-01-17T00:35:31.775Z,15.52
2023-01-17T00:38:11.913Z,14.77
2023-01-17T00:40:39.764Z,16.85
2023-01-17T00:43:25.347Z,19.95
2023-01-17T00:46:10.855Z,19.67
2023-01-17T00:48:56.437Z,22.23
2023-01-17T00:51:43.485Z,20.70
2023-01-17T00:54:28.942Z,15.32
2023-01-17T00:57:14.366Z,15.02
2023-01-17T00:59:59.344Z,13.23
2023-01-17T01:02:44.722Z,11.52
2023-01-17T01:05:31.488Z,13.23
2023-01-17T01:08:16.954Z,11.75
2023-01-17T01:11:02.355Z,11.82
2023-01-17T01:13:47.991Z,10.80
2023-01-17T01:16:33.393Z,12.70
2023-01-17T01:19:18.297Z,11.32
2023-01-17T01:22:03.573Z,14.00
2023-01-17T01:24:49.249Z,12.65
2023-01-17T01:27:34.196Z,12.50
2023-01-17T01:30:19.324Z,13.32
2023-01-17T01:33:04.016Z,12.70
2023-01-17T01:35:30.514Z,15.32
2023-01-17T01:37:56.913Z,10.65
2023-01-17T01:40:23.298Z,13.30
2023-01-17T01:42:53.881Z,14.15
2023-01-17T01:45:25.846Z,14.32
2023-01-17T01:47:56.576Z,13.90
2023-01-17T01:50:23.281Z,11.30
2023-01-17T01:52:53.648Z,10.10
2023-01-17T01:55:26.821Z,9.02
2023-01-17T01:57:55.556Z,10.57
2023-01-17T02:00:29.681Z,6.68
2023-01-17T02:02:58.225Z,7.25
2023-01-17T02:05:25.684Z,8.05
2023-01-17T02:08:01.652Z,5.13
2023-01-17T02:10:28.396Z,5.88
2023-01-17T02:12:55.893Z,6.50
2023-01-17T02:15:31.862Z,8.30
2023-01-17T02:18:24.321Z,6.10
2023-01-17T02:21:18.034Z,6.22
2023-01-17T02:24:09.260Z,7.93
2023-01-17T02:26:50.010Z,6.20
2023-01-17T02:29:34.779Z,8.73
2023-01-17T02:32:07.078Z,7.28
2023-01-17T02:37:16.976Z,3.05
2023-01-17T02:39:50.876Z,2.83
2023-01-17T02:42:19.654Z,1.67
2023-01-17T02:44:46.015Z,2.53
2023-01-17T02:47:24.994Z,1.80
2023-01-17T02:49:53.735Z,2.00
2023-01-17T02:52:26.127Z,1.35
2023-01-17T02:55:14.671Z,1.60
2023-01-17T02:57:59.097Z,1.48
2023-01-17T03:00:42.265Z,1.50
2023-01-17T03:03:27.114Z,1.75
2023-01-17T03:05:53.379Z,4.28
2023-01-17T03:08:20.286Z,2.53
2023-01-17T03:10:46.969Z,3.33
2023-01-17T03:13:13.776Z,16.88
2023-01-17T03:15:40.582Z,3.10
2023-01-17T03:18:11.504Z,3.75
2023-01-17T03:20:37.922Z,3.35
2023-01-17T03:23:04.287Z,3.63
2023-01-17T03:25:30.692Z,2.97
2023-01-17T03:27:57.070Z,1.90
2023-01-17T03:30:23.511Z,2.38
2023-01-17T03:32:49.969Z,2.05
2023-01-17T03:35:16.376Z,1.50
2023-01-17T03:37:42.936Z,1.77
2023-01-17T03:40:09.768Z,1.60
2023-01-17T03:42:36.271Z,1.42
2023-01-17T03:45:02.704Z,1.42
2023-01-17T03:47:29.108Z,1.40
2023-01-17T03:49:55.469Z,1.85
2023-01-17T03:52:21.821Z,1.40
2023-01-17T03:54:48.607Z,2.47
2023-01-17T03:57:15.611Z,2.35
2023-01-17T03:59:41.973Z,2.30
2023-01-17T04:02:08.550Z,2.88
2023-01-17T04:04:35.008Z,3.22
2023-01-17T04:07:01.398Z,4.30
2023-01-17T04:09:27.787Z,4.47
2023-01-17T04:11:54.140Z,5.88
2023-01-17T04:14:20.518Z,6.10
2023-01-17T04:16:46.978Z,6.97
2023-01-17T04:19:13.868Z,7.40
2023-01-17T04:21:40.304Z,11.23
2023-01-17T04:24:06.998Z,10.45
2023-01-17T04:26:33.371Z,10.68
2023-01-17T04:28:59.753Z,10.55
2023-01-17T04:31:26.264Z,14.10
2023-01-17T04:33:52.712Z,16.17
2023-01-17T04:36:19.088Z,13.52
2023-01-17T04:38:45.535Z,13.95
2023-01-17T04:41:11.972Z,12.90
2023-01-17T04:43:38.436Z,16.85
2023-01-17T04:46:09.799Z,17.40
2023-01-17T04:48:36.722Z,20.10
2023-01-17T04:51:04.336Z,20.13
2023-01-17T04:53:31.017Z,21.38
2023-01-17T04:55:57.786Z,20.92
2023-01-17T04:58:24.242Z,23.73
2023-01-17T05:00:51.683Z,16.65
2023-01-17T05:03:19.300Z,33.08
2023-01-17T05:05:45.849Z,36.00
2023-01-17T05:08:12.317Z,25.83
2023-01-17T05:10:38.713Z,34.97
2023-01-17T05:13:05.265Z,28.55
2023-01-17T05:15:31.964Z,27.23
2023-01-17T05:17:58.406Z,30.05
2023-01-17T05:20:26.419Z,22.80
2023-01-17T05:22:56.921Z,22.00
2023-01-17T05:25:24.835Z,27.33
2023-01-17T05:27:51.549Z,22.90
2023-01-17T05:30:18.659Z,21.10
2023-01-17T05:32:52.795Z,18.38
2023-01-17T05:35:21.131Z,18.15
2023-01-17T05:37:49.256Z,15.95
2023-01-17T05:40:28.058Z,15.57
2023-01-17T05:42:56.365Z,18.23
2023-01-17T05:45:24.884Z,19.25
2023-01-17T05:47:53.102Z,13.52
2023-01-17T05:50:21.672Z,18.35
2023-01-17T05:52:55.956Z,18.02
2023-01-17T05:55:23.215Z,17.48
2023-01-17T05:57:50.227Z,18.67
2023-01-17T06:00:17.505Z,18.83
2023-01-17T06:02:45.279Z,17.42
2023-01-17T06:05:11.851Z,22.10
2023-01-17T06:07:38.265Z,17.95
2023-01-17T06:10:05.333Z,21.83
2023-01-17T06:12:32.190Z,21.83
2023-01-17T06:14:58.627Z,26.02
2023-01-17T06:17:24.996Z,21.65
2023-01-17T06:19:51.377Z,25.30
2023-01-17T06:22:17.741Z,28.48
2023-01-17T06:24:44.152Z,29.75
2023-01-17T06:27:10.678Z,25.92
2023-01-17T06:29:37.589Z,22.73
2023-01-17T06:32:04.181Z,22.35
2023-01-17T06:34:30.926Z,24.55
2023-01-17T06:36:57.400Z,19.95
2023-01-17T06:39:23.764Z,28.48
2023-01-17T06:41:50.223Z,21.10
2023-01-17T06:44:16.598Z,25.08
2023-01-17T06:46:43.373Z,23.27
2023-01-17T06:49:09.883Z,25.77
2023-01-17T06:51:36.264Z,29.75
2023-01-17T06:54:02.635Z,25.48
2023-01-17T06:56:31.653Z,25.15
2023-01-17T06:58:58.038Z,22.65
2023-01-17T07:01:24.974Z,25.23
2023-01-17T07:03:52.412Z,22.27
2023-01-17T07:06:18.910Z,24.67
2023-01-17T07:08:45.605Z,24.30
2023-01-17T07:11:12.010Z,22.67
2023-01-17T07:13:38.405Z,22.27
2023-01-17T07:16:06.110Z,23.58
2023-01-17T07:18:33.216Z,25.58
2023-01-17T07:20:59.636Z,24.05
2023-01-17T07:23:26.165Z,27.92
2023-01-17T07:26:00.108Z,24.08
2023-01-17T07:28:27.719Z,34.35
2023-01-17T07:30:54.553Z,24.60
2023-01-17T07:33:21.470Z,23.48
2023-01-17T07:35:47.871Z,19.83
2023-01-17T07:38:16.241Z,29.98
2023-01-17T07:40:42.760Z,26.73
2023-01-17T07:43:16.502Z,23.60
2023-01-17T07:45:44.514Z,23.80
2023-01-17T07:48:11.553Z,29.05
2023-01-17T07:50:38.551Z,23.92
2023-01-17T07:53:05.365Z,28.30
2023-01-17T07:55:31.962Z,25.52
2023-01-17T07:57:58.446Z,30.38
2023-01-17T08:00:27.461Z,28.35
2023-01-17T08:02:58.032Z,35.97
2023-01-17T08:05:25.186Z,32.78
2023-01-17T08:07:51.982Z,33.95
2023-01-17T08:10:18.893Z,35.92
2023-01-17T08:12:49.839Z,33.97
2023-01-17T08:15:17.596Z,34.10
2023-01-17T08:17:48.095Z,32.83
2023-01-17T08:20:15.583Z,36.40
2023-01-17T08:22:42.127Z,34.35
2023-01-17T08:25:09.177Z,28.48
2023-01-17T08:27:36.295Z,25.30
2023-01-17T08:30:03.450Z,29.85
2023-01-17T08:32:29.823Z,27.75
2023-01-17T08:34:57.091Z,25.67
2023-01-17T08:37:23.764Z,24.90
2023-01-17T08:39:50.141Z,29.88
2023-01-17T08:42:16.607Z,29.90
2023-01-17T08:44:43.574Z,28.00
2023-01-17T08:47:10.196Z,29.25
2023-01-17T08:49:36.762Z,30.42
2023-01-17T08:52:03.389Z,32.78
2023-01-17T08:54:29.801Z,24.98
2023-01-17T08:56:56.189Z,23.98
2023-01-17T08:59:22.640Z,27.02
2023-01-17T09:01:49.187Z,30.10
2023-01-17T09:04:15.831Z,22.73
2023-01-17T09:06:45.317Z,29.25
2023-01-17T09:09:11.715Z,30.98
2023-01-17T09:11:38.597Z,30.40
2023-01-17T09:14:05.140Z,24.95
2023-01-17T09:16:31.974Z,31.55
2023-01-17T09:18:58.916Z,28.05
2023-01-17T09:21:26.226Z,29.05
2023-01-17T09:23:53.400Z,31.20
2023-01-17T09:26:25.704Z,24.38
2023-01-17T09:31:20.916Z,31.02
2023-01-17T09:33:51.868Z,28.55
2023-01-17T09:36:18.374Z,31.45
2023-01-17T09:38:44.837Z,24.90
2023-01-17T09:41:22.088Z,23.55
2023-01-17T09:43:56.005Z,22.08
2023-01-17T09:46:29.554Z,33.75
2023-01-17T09:49:08.870Z,30.20
2023-01-17T09:51:36.019Z,27.98
2023-01-17T09:54:02.498Z,31.08
2023-01-17T09:56:32.749Z,30.65
2023-01-17T09:59:11.779Z,27.95
2023-01-17T10:02:03.196Z,33.25
2023-01-17T10:04:41.794Z,28.83
2023-01-17T10:07:19.651Z,33.63
2023-01-17T10:09:59.936Z,32.20
2023-01-17T10:12:48.079Z,23.90
2023-01-17T10:15:28.701Z,21.95
2023-01-17T10:18:29.508Z,25.48
2023-01-17T10:20:56.100Z,25.80
2023-01-17T10:23:41.157Z,24.25
2023-01-17T10:26:26.771Z,25.73
2023-01-17T10:28:56.678Z,27.35
2023-01-17T10:31:28.022Z,27.23
2023-01-17T10:34:06.060Z,29.00
2023-01-17T10:36:37.906Z,33.63
2023-01-17T10:39:15.913Z,28.10
2023-01-17T10:41:44.008Z,24.67
2023-01-17T10:44:33.222Z,22.25
2023-01-17T10:47:07.283Z,22.75
2023-01-17T10:49:33.721Z,18.83
2023-01-17T10:52:06.410Z,19.55
2023-01-17T10:54:56.524Z,16.67
2023-01-17T10:57:25.219Z,23.08
2023-01-17T10:59:52.528Z,22.17
2023-01-17T11:02:23.378Z,21.05
2023-01-17T11:04:54.232Z,23.55
2023-01-17T11:07:23.314Z,22.95
2023-01-17T11:09:54.540Z,25.58
2023-01-17T11:12:28.102Z,23.60
2023-01-17T11:14:59.935Z,23.63
2023-01-17T11:17:27.460Z,27.13
2023-01-17T11:19:54.477Z,23.30
2023-01-17T11:22:21.133Z,19.05
2023-01-17T11:24:51.469Z,27.92
2023-01-17T11:27:29.621Z,23.33
2023-01-17T11:30:07.194Z,21.20
2023-01-17T11:32:34.369Z,21.02
2023-01-17T11:35:09.800Z,21.92
2023-01-17T11:37:36.728Z,23.60
2023-01-17T11:40:23.607Z,22.40
2023-01-17T11:43:03.290Z,22.77
2023-01-17T11:45:32.343Z,21.30
2023-01-17T11:48:07.851Z,18.77
2023-01-17T11:50:37.432Z,25.63
2023-01-17T11:53:21.811Z,20.42
2023-01-17T11:56:09.201Z,20.35
2023-01-17T11:58:41.307Z,20.27
2023-01-17T12:01:18.044Z,25.23
2023-01-17T12:04:00.934Z,22.85
2023-01-17T12:06:47.812Z,21.15
2023-01-17T12:09:36.257Z,19.63
2023-01-17T12:12:30.299Z,21.30
2023-01-17T12:15:06.324Z,18.75
2023-01-17T12:17:54.367Z,22.45
2023-01-17T12:20:52.462Z,30.15
2023-01-17T12:23:43.660Z,19.33
2023-01-17T12:26:30.221Z,22.58
2023-01-17T12:29:23.216Z,27.65
2023-01-17T12:32:13.895Z,23.02
2023-01-17T12:34:47.015Z,21.55
2023-01-17T12:37:39.126Z,23.23
2023-01-17T12:40:32.416Z,18.80
2023-01-17T12:43:14.471Z,18.60
2023-01-17T12:45:45.744Z,17.52
2023-01-17T12:48:16.071Z,19.77
2023-01-17T12:50:48.939Z,20.60
2023-01-17T12:53:24.411Z,14.88
2023-01-17T12:56:04.183Z,23.65
2023-01-17T12:58:36.757Z,14.40
2023-01-17T13:01:15.661Z,15.13
2023-01-17T13:04:16.400Z,19.45
2023-01-17T13:06:53.559Z,14.27
2023-01-17T13:09:22.920Z,16.58
2023-01-17T13:12:00.190Z,23.20
2023-01-17T13:14:27.841Z,19.25
2023-01-17T13:17:18.947Z,15.48
2023-01-17T13:19:51.075Z,18.40
2023-01-17T13:25:25.100Z,16.25
2023-01-17T13:28:03.872Z,9.65
2023-01-17T13:30:59.155Z,9.80
2023-01-17T13:33:34.034Z,13.40
2023-01-17T13:36:29.701Z,11.13
2023-01-17T13:39:20.924Z,9.77
2023-01-17T13:41:51.484Z,12.18
2023-01-17T13:44:27.141Z,12.93
2023-01-17T13:47:04.232Z,13.00
2023-01-17T13:49:33.170Z,9.27
2023-01-17T13:52:05.497Z,13.35
2023-01-17T13:54:33.295Z,8.25
2023-01-17T13:57:29.877Z,9.65
2023-01-17T13:59:57.995Z,9.80
2023-01-17T14:02:33.379Z,11.90
2023-01-17T14:05:08.400Z,11.05
2023-01-17T14:07:37.173Z,11.73
2023-01-17T14:10:22.589Z,9.88
2023-01-17T14:12:49.385Z,15.77
2023-01-17T14:15:20.713Z,11.40
2023-01-17T14:17:51.534Z,14.98
2023-01-17T14:20:18.769Z,10.80
2023-01-17T14:22:51.806Z,11.85
2023-01-17T14:25:19.763Z,6.97
2023-01-17T14:28:03.330Z,8.32
2023-01-17T14:30:36.548Z,11.07
2023-01-17T14:33:05.765Z,14.40
2023-01-17T14:35:37.632Z,11.95
2023-01-17T14:38:15.406Z,15.30
2023-01-17T14:41:02.715Z,12.25
2023-01-17T14:43:32.830Z,12.45
2023-01-17T14:46:02.359Z,9.80
2023-01-17T14:48:29.043Z,13.25
2023-01-17T14:50:59.849Z,8.00
2023-01-17T14:53:30.483Z,10.93
2023-01-17T14:55:58.379Z,8.85
2023-01-17T14:58:27.219Z,10.52
2023-01-17T15:00:57.826Z,16.50
2023-01-17T15:03:24.500Z,14.50
2023-01-17T15:05:52.926Z,14.20
2023-01-17T15:08:22.326Z,15.95
2023-01-17T15:10:56.140Z,17.00
2023-01-17T15:13:43.148Z,13.30
2023-01-17T15:16:17.712Z,16.23
2023-01-17T15:18:44.174Z,12.27
2023-01-17T15:21:16.015Z,9.43
2023-01-17T15:24:03.727Z,17.08
2023-01-17T15:26:34.367Z,13.45
2023-01-17T15:29:07.354Z,10.90
2023-01-17T15:31:42.964Z,10.73
2023-01-17T15:34:26.866Z,15.90
2023-01-17T15:36:54.279Z,11.90
2023-01-17T15:39:23.655Z,9.80
2023-01-17T15:41:54.883Z,9.98
2023-01-17T15:44:47.097Z,10.05
2023-01-17T15:47:28.410Z,10.82
2023-01-17T15:49:54.804Z,8.57
2023-01-17T15:52:21.695Z,14.90
2023-01-17T15:54:53.383Z,10.85
2023-01-17T15:57:25.425Z,9.73
2023-01-17T16:00:22.314Z,12.30
2023-01-17T16:02:55.105Z,10.55
2023-01-17T16:05:24.787Z,9.52
2023-01-17T16:07:56.017Z,9.10
2023-01-17T16:10:28.651Z,12.60
2023-01-17T16:12:56.090Z,10.25
2023-01-17T16:15:25.864Z,9.82
2023-01-17T16:17:55.987Z,10.93
2023-01-17T16:20:33.076Z,11.52
2023-01-17T16:23:00.521Z,13.90
2023-01-17T16:25:32.257Z,8.77
2023-01-17T16:27:59.485Z,9.40
2023-01-17T16:30:28.999Z,9.18
2023-01-17T16:32:56.620Z,15.77
2023-01-17T16:35:25.465Z,14.32
2023-01-17T16:37:57.021Z,9.80
2023-01-17T16:40:25.594Z,16.75
2023-01-17T16:42:52.064Z,20.23
2023-01-17T16:45:18.790Z,12.63
2023-01-17T16:47:46.611Z,13.60
2023-01-17T16:50:14.965Z,15.55
2023-01-17T16:52:41.514Z,12.00
2023-01-17T16:55:13.699Z,15.88
2023-01-17T16:57:40.313Z,12.90
2023-01-17T17:00:07.566Z,18.05
2023-01-17T17:02:34.029Z,14.23
2023-01-17T17:05:00.493Z,20.67
2023-01-17T17:07:26.875Z,19.30
2023-01-17T17:09:53.270Z,17.63
2023-01-17T17:12:19.658Z,19.73
2023-01-17T17:14:46.068Z,15.30
2023-01-17T17:17:12.488Z,11.35
2023-01-17T17:19:38.884Z,16.27
2023-01-17T17:22:06.431Z,13.30
2023-01-17T17:24:33.192Z,16.27
2023-01-17T17:26:59.589Z,10.98
2023-01-17T17:29:26.011Z,15.25
2023-01-17T17:31:53.591Z,13.80
2023-01-17T17:34:20.648Z,14.57
2023-01-17T17:36:47.039Z,18.25
2023-01-17T17:39:17.095Z,20.33
2023-01-17T17:41:45.496Z,13.25
2023-01-17T17:44:12.543Z,10.05
2023-01-17T17:46:39.054Z,13.50
2023-01-17T17:49:06.637Z,9.80
2023-01-17T17:51:35.160Z,11.52
2023-01-17T17:54:06.512Z,10.95
2023-01-17T17:56:34.629Z,9.82
2023-01-17T17:59:02.488Z,14.75
2023-01-17T18:01:29.344Z,18.90
2023-01-17T18:03:57.662Z,20.83
2023-01-17T18:06:24.091Z,13.95
2023-01-17T18:08:51.922Z,14.77
2023-01-17T18:11:23.889Z,22.05
2023-01-17T18:13:51.927Z,16.63
2023-01-17T18:16:32.879Z,21.95
2023-01-17T18:18:59.723Z,23.40
2023-01-17T18:21:31.116Z,18.83
2023-01-17T18:24:00.086Z,19.63
2023-01-17T18:26:28.829Z,23.20
2023-01-17T18:28:56.617Z,18.08
2023-01-17T18:31:29.989Z,28.05
2023-01-17T18:34:04.385Z,27.27
2023-01-17T18:36:31.146Z,17.83
2023-01-17T18:38:57.645Z,16.05
2023-01-17T18:41:29.218Z,15.32
2023-01-17T18:43:56.088Z,10.30
2023-01-17T18:46:22.880Z,13.68
2023-01-17T18:48:49.323Z,17.33
2023-01-17T18:51:17.750Z,18.08
2023-01-17T18:53:45.475Z,19.38
2023-01-17T18:56:14.435Z,14.50
2023-01-17T18:58:42.793Z,15.68
2023-01-17T19:01:19.115Z,20.35
2023-01-17T19:03:47.583Z,14.70
2023-01-17T19:06:18.024Z,17.30
2023-01-17T19:08:45.044Z,24.15
2023-01-17T19:11:12.090Z,20.80
2023-01-17T19:13:39.433Z,28.67
2023-01-17T19:16:14.756Z,24.77
2023-01-17T19:18:41.780Z,26.10
2023-01-17T19:21:15.710Z,20.90
2023-01-17T19:23:43.434Z,29.13
2023-01-17T19:26:11.031Z,26.65
2023-01-17T19:28:39.060Z,24.85
2023-01-17T19:31:14.105Z,22.30
2023-01-17T19:33:43.499Z,20.25
2023-01-17T19:36:17.064Z,23.63
2023-01-17T19:38:52.283Z,20.00
2023-01-17T19:41:27.173Z,24.15
2023-01-17T19:43:55.343Z,19.95
2023-01-17T19:46:22.329Z,31.35
2023-01-17T19:48:48.685Z,26.42
2023-01-17T19:51:16.001Z,24.52
2023-01-17T19:53:42.509Z,26.35
2023-01-17T19:56:14.577Z,28.33
2023-01-17T19:58:41.925Z,23.00
2023-01-17T20:01:24.614Z,27.38
2023-01-17T20:03:51.491Z,27.65
2023-01-17T20:06:20.288Z,27.05
2023-01-17T20:08:46.825Z,26.25
2023-01-17T20:11:15.948Z,22.33
2023-01-17T20:13:42.490Z,29.45
2023-01-17T20:16:11.227Z,27.42
2023-01-17T20:18:37.801Z,30.70
2023-01-17T20:21:04.789Z,32.63
2023-01-17T20:23:35.747Z,31.38
2023-01-17T20:26:04.436Z,35.28
2023-01-17T20:28:33.170Z,26.88
2023-01-17T20:31:09.114Z,30.52
2023-01-17T20:33:36.255Z,33.75
2023-01-17T20:36:10.109Z,81.57
2023-01-17T20:38:44.697Z,56.92
2023-01-17T20:41:14.208Z,51.00
2023-01-17T20:43:44.974Z,42.10
2023-01-17T20:46:11.990Z,45.75
2023-01-17T20:48:44.228Z,45.53
2023-01-17T20:53:38.807Z,39.75
2023-01-17T20:56:06.024Z,41.10
2023-01-17T20:58:33.948Z,40.08
2023-01-17T21:01:01.041Z,33.85
2023-01-17T21:03:33.213Z,33.10
2023-01-17T21:06:05.076Z,31.02
2023-01-17T21:08:33.256Z,31.02
2023-01-17T21:10:59.903Z,28.35
2023-01-17T21:13:26.772Z,32.60
2023-01-17T21:15:53.892Z,32.75
2023-01-17T21:18:21.887Z,26.35
2023-01-17T21:20:48.668Z,37.70
2023-01-17T21:23:17.996Z,35.65
2023-01-17T21:26:05.035Z,41.28
2023-01-17T21:28:33.883Z,34.92
2023-01-17T21:31:00.445Z,45.30
2023-01-17T21:33:29.261Z,30.15
2023-01-17T21:35:55.669Z,29.08
2023-01-17T21:38:22.039Z,32.00
2023-01-17T21:40:48.421Z,31.70
2023-01-17T21:43:15.044Z,29.73
2023-01-17T21:45:42.086Z,29.98
2023-01-17T21:48:13.523Z,34.33
2023-01-17T21:50:39.944Z,39.72
2023-01-17T21:53:06.985Z,38.00
2023-01-17T21:55:51.999Z,38.20
2023-01-17T21:58:36.769Z,33.05
2023-01-17T22:01:17.725Z,33.22
2023-01-17T22:03:49.411Z,27.73
2023-01-17T22:06:15.916Z,34.53
2023-01-17T22:08:42.408Z,33.15
2023-01-17T22:11:11.428Z,35.08
2023-01-17T22:13:38.991Z,36.00
2023-01-17T22:16:07.760Z,40.60
2023-01-17T22:18:38.861Z,47.65
2023-01-17T22:21:16.751Z,60.95
2023-01-17T22:23:53.253Z,55.10
2023-01-17T22:26:21.518Z,57.30
2023-01-17T22:28:48.220Z,51.45
2023-01-17T22:31:20.797Z,51.13
2023-01-17T22:33:48.139Z,45.58
2023-01-17T22:36:15.169Z,44.15
2023-01-17T22:38:42.553Z,45.33
2023-01-17T22:41:13.016Z,43.05
2023-01-17T22:43:42.006Z,51.33
2023-01-17T22:46:10.164Z,40.00
2023-01-17T22:48:37.812Z,48.78
2023-01-17T22:51:06.015Z,46.83
2023-01-17T22:53:32.976Z,37.83
2023-01-17T22:56:04.403Z,39.42
2023-01-17T22:58:31.371Z,32.08
2023-01-17T23:01:05.502Z,31.35
2023-01-17T23:03:32.801Z,32.97
2023-01-17T23:06:12.465Z,38.45
2023-01-17T23:08:40.493Z,49.80
2023-01-17T23:11:39.324Z,39.22
2023-01-17T23:14:14.853Z,37.53
2023-01-17T23:17:03.030Z,41.90
2023-01-17T23:19:32.747Z,48.72
2023-01-17T23:22:18.762Z,44.88
2023-01-17T23:24:52.245Z,43.97
2023-01-17T23:27:52.552Z,46.50
2023-01-17T23:30:25.696Z,36.88
2023-01-17T23:32:57.388Z,36.25
2023-01-17T23:35:26.803Z,36.90
2023-01-17T23:38:28.573Z,37.47
2023-01-17T23:41:22.525Z,35.83
2023-01-17T23:43:52.650Z,35.72
2023-01-17T23:46:19.351Z,37.47
2023-01-17T23:48:45.736Z,33.63
2023-01-17T23:51:12.140Z,38.22
2023-01-17T23:53:39.442Z,42.45
2023-01-17T23:56:23.036Z,53.35
2023-01-17T23:58:49.480Z,45.70
